Camellia — VRCP9 — position and weather

sailwx.info

Track history (hours):
 
Tides and Currents Weather Stations Pressure Air Temp Water Temp Dewpoint Dewpoint Depression Visibility Wind Speed Wind Dir Waves Ship Positions

Camellia

Last reported at 2015-Jul-24 19:13 UTC. Time now 2015-Jul-29 17:55 UTC.
Position N 41°02' E 029°00'.

Length 222 m; draft 9.4 m.

Type: Ship (hazmat cat C). MMSI: 477791900.

Date/timePositionNaut miles runAvg speedWind from/ knotsBaromVisibWave heightAir tempDewpointWater temp
2015-Jul-24 19:13N 41°02' E 029°00'1 0.2
2015-Jul-24 12:14N 41°00' E 029°00'1 2.0
2015-Jul-24 11:33N 40°59' E 028°60'1110.9
2015-Jul-24 10:33N 40°52' E 028°49'8 1.0
2015-Jul-24 02:22N 40°57' E 028°41'4 5.4
2015-Jul-24 01:33N 40°52' E 028°42'1313.6
2015-Jul-24 00:33N 40°45' E 028°56'1818.1
2015-Jul-23 23:33N 40°44' E 029°20'9 1.0
2015-Jul-23 14:30N 40°45' E 029°32'4 4.7
2015-Jul-23 13:33N 40°44' E 029°26'1312.6
2015-Jul-23 12:33N 40°43' E 029°09'2 2.2
2015-Jul-23 11:29N 40°43' E 029°06'0 0.4
2015-Jul-23 10:29N 40°44' E 029°06'0 0.2
2015-Jul-23 09:29N 40°44' E 029°06'0 0.3
2015-Jul-23 08:29N 40°44' E 029°06'0 0.3
2015-Jul-23 07:23N 40°44' E 029°06'5 5.9
2015-Jul-23 06:33N 40°44' E 028°59'62216.4
2015-Jul-21 16:32N 35°52' E 017°19'2020.5
2015-Jul-21 15:33N 35°52' E 016°54'2320.5
2015-Jul-21 14:27N 35°51' E 016°26'1820.2
2015-Jul-21 13:33N 35°50' E 016°04'2019.8
2015-Jul-21 12:33N 35°50' E 015°40'2020.1
2015-Jul-21 11:33N 35°49' E 015°15'2020.1
2015-Jul-21 10:33N 35°47' E 014°50'1414.3
2015-Jul-21 09:34N 35°49' E 014°33'0 0.4
2015-Jul-21 08:27N 35°49' E 014°32'0 0.0
2015-Jul-21 07:33N 35°49' E 014°32'0 0.0
2015-Jul-21 06:33N 35°49' E 014°32'0 0.0
2015-Jul-20 23:14N 35°49' E 014°32'0 0.0
2015-Jul-20 22:32N 35°49' E 014°32'0 0.0
2015-Jul-20 17:29N 35°49' E 014°32'0 0.0
2015-Jul-20 16:29N 35°49' E 014°32'0 0.0
2015-Jul-20 15:33N 35°49' E 014°32'0 0.0
2015-Jul-20 14:33N 35°49' E 014°32'0 0.0
2015-Jul-20 13:33N 35°49' E 014°32'0 0.0
2015-Jul-20 12:33N 35°49' E 014°32'0 0.0
2015-Jul-20 11:33N 35°49' E 014°32'0 0.0
2015-Jul-20 10:33N 35°49' E 014°32'0 0.0
2015-Jul-20 09:33N 35°49' E 014°32'0 0.0
2015-Jul-20 08:33N 35°49' E 014°32'0 0.0
2015-Jul-20 07:33N 35°49' E 014°32'0 0.0
2015-Jul-20 06:32N 35°49' E 014°32'0 0.0
2015-Jul-20 05:33N 35°49' E 014°32'0 0.0
2015-Jul-20 04:33N 35°49' E 014°32'0 0.0
2015-Jul-20 03:33N 35°49' E 014°32'0 0.1
2015-Jul-20 01:31N 35°49' E 014°32'5 5.1
2015-Jul-20 00:32N 35°48' E 014°38'5 2.3
2015-Jul-19 22:25N 35°47' E 014°44'0 0.4
2015-Jul-19 21:11N 35°47' E 014°44'1911.2
2015-Jul-19 19:29N 35°47' E 014°20'2115.5
2015-Jul-19 18:10N 35°58' E 013°59'915.5
2015-Jul-19 17:33N 36°03' E 013°49'1515.4
2015-Jul-19 16:33N 36°11' E 013°33'1515.5
2015-Jul-19 15:33N 36°19' E 013°17'1515.2
2015-Jul-19 14:33N 36°28' E 013°01'1515.1
2015-Jul-19 13:33N 36°36' E 012°45'1515.3
2015-Jul-19 12:33N 36°44' E 012°29'1615.5
2015-Jul-19 11:34N 36°52' E 012°12'1615.5
2015-Jul-19 10:33N 37°00' E 011°56'1615.6
2015-Jul-19 09:33N 37°08' E 011°39'1515.3
2015-Jul-19 08:33N 37°16' E 011°22'1515.0
2015-Jul-19 07:32N 37°24' E 011°06'1515.3
2015-Jul-19 06:33N 37°28' E 010°47'1515.6
2015-Jul-19 05:33N 37°31' E 010°29'1615.8
2015-Jul-19 04:32N 37°34' E 010°08'6215.6
2015-Jul-19 00:33N 37°20' E 008°52'1915.8
2015-Jul-18 23:20N 37°16' E 008°28'6316.2
2015-Jul-18 19:27N 37°17' E 007°09'6215.2
2015-Jul-18 15:23N 37°19' E 005°51'9215.6
2015-Jul-18 09:28N 37°19' E 003°55'2015.6
2015-Jul-18 08:10N 37°14' E 003°31'915.3
2015-Jul-18 07:33N 37°12' E 003°19'1515.3
2015-Jul-18 06:33N 37°09' E 003°00'1515.1
2015-Jul-18 05:33N 37°05' E 002°42'1615.7
2015-Jul-18 04:33N 37°01' E 002°23'1615.6
2015-Jul-18 03:33N 36°57' E 002°04'1616.2
2015-Jul-18 02:33N 36°54' E 001°44'1615.6
2015-Jul-18 01:33N 36°50' E 001°25'1815.6
2015-Jul-18 00:25N 36°47' E 001°04'1415.7
2015-Jul-17 23:33N 36°43' E 000°47'1616.0
2015-Jul-17 22:33N 36°39' E 000°28'1615.8
2015-Jul-17 21:33N 36°36' E 000°09'1615.7
2015-Jul-17 20:33N 36°32' W 000°10'1615.8
2015-Jul-17 19:33N 36°28' W 000°29'1615.6
2015-Jul-17 18:33N 36°24' W 000°48'1615.9
2015-Jul-17 17:33N 36°20' W 001°07'1615.8
2015-Jul-17 16:33N 36°17' W 001°26'1615.7
2015-Jul-17 15:33N 36°13' W 001°45'1616.2
2015-Jul-17 14:33N 36°10' W 002°05'1615.8
2015-Jul-17 13:33N 36°09' W 002°24'1615.9
2015-Jul-17 12:32N 36°07' W 002°45'2115.4
2015-Jul-17 11:08N 36°06' W 003°11'208 7.3
2015-Jul-16 06:33N 36°08' W 007°29'1616.2
2015-Jul-16 05:33N 36°12' W 007°48'1616.4
2015-Jul-16 04:33N 36°17' W 008°07'1616.4
2015-Jul-16 03:33N 36°22' W 008°27'1616.3
2015-Jul-16 02:33N 36°26' W 008°46'1716.6
2015-Jul-16 01:33N 36°31' W 009°06'1615.8
2015-Jul-16 00:33N 36°38' W 009°23'1615.9
2015-Jul-15 23:34N 36°51' W 009°35'1817.6
2015-Jul-15 22:33N 37°09' W 009°39'1817.6
2015-Jul-15 21:33N 37°26' W 009°43'1717.4
2015-Jul-15 20:33N 37°43' W 009°49'1717.5
2015-Jul-15 19:33N 37°60' W 009°54'1817.7
2015-Jul-15 18:33N 38°17' W 009°59'1817.8
2015-Jul-15 17:33N 38°34' W 010°04'1717.3
2015-Jul-15 16:33N 38°52' W 010°06'2017.9
2015-Jul-15 15:28N 39°11' W 010°06'1617.6
2015-Jul-15 14:33N 39°27' W 010°06'3717.7
2015-Jul-15 12:27N 40°04' W 010°06'1617.5
2015-Jul-15 11:32N 40°20' W 010°06'10717.8
2015-Jul-15 05:30N 42°08' W 010°06'1717.7
2015-Jul-15 04:33N 42°24' W 010°06'  
Track history (hours):
 
Tides and Currents Weather Stations Pressure Air Temp Water Temp Dewpoint Dewpoint Depression Visibility Wind Speed Wind Dir Waves Ship Positions

Camellia

Last reported at 2015-Jul-24 19:13 UTC. Time now 2015-Jul-29 17:55 UTC.
Position N 41°02' E 029°00'.

Length 222 m; draft 9.4 m.

Type: Ship (hazmat cat C). MMSI: 477791900.

Date/timePositionNaut miles runAvg speedWind from/ knotsBaromVisibWave heightAir tempDewpointWater temp
2015-Jul-24 19:13N 41°02' E 029°00'1 0.2
2015-Jul-24 12:14N 41°00' E 029°00'1 2.0
2015-Jul-24 11:33N 40°59' E 028°60'1110.9
2015-Jul-24 10:33N 40°52' E 028°49'8 1.0
2015-Jul-24 02:22N 40°57' E 028°41'4 5.4
2015-Jul-24 01:33N 40°52' E 028°42'1313.6
2015-Jul-24 00:33N 40°45' E 028°56'1818.1
2015-Jul-23 23:33N 40°44' E 029°20'9 1.0
2015-Jul-23 14:30N 40°45' E 029°32'4 4.7
2015-Jul-23 13:33N 40°44' E 029°26'1312.6
2015-Jul-23 12:33N 40°43' E 029°09'2 2.2
2015-Jul-23 11:29N 40°43' E 029°06'0 0.4
2015-Jul-23 10:29N 40°44' E 029°06'0 0.2
2015-Jul-23 09:29N 40°44' E 029°06'0 0.3
2015-Jul-23 08:29N 40°44' E 029°06'0 0.3
2015-Jul-23 07:23N 40°44' E 029°06'5 5.9
2015-Jul-23 06:33N 40°44' E 028°59'62216.4
2015-Jul-21 16:32N 35°52' E 017°19'2020.5
2015-Jul-21 15:33N 35°52' E 016°54'2320.5
2015-Jul-21 14:27N 35°51' E 016°26'1820.2
2015-Jul-21 13:33N 35°50' E 016°04'2019.8
2015-Jul-21 12:33N 35°50' E 015°40'2020.1
2015-Jul-21 11:33N 35°49' E 015°15'2020.1
2015-Jul-21 10:33N 35°47' E 014°50'1414.3
2015-Jul-21 09:34N 35°49' E 014°33'0 0.4
2015-Jul-21 08:27N 35°49' E 014°32'0 0.0
2015-Jul-21 07:33N 35°49' E 014°32'0 0.0
2015-Jul-21 06:33N 35°49' E 014°32'0 0.0
2015-Jul-20 23:14N 35°49' E 014°32'0 0.0
2015-Jul-20 22:32N 35°49' E 014°32'0 0.0
2015-Jul-20 17:29N 35°49' E 014°32'0 0.0
2015-Jul-20 16:29N 35°49' E 014°32'0 0.0
2015-Jul-20 15:33N 35°49' E 014°32'0 0.0
2015-Jul-20 14:33N 35°49' E 014°32'0 0.0
2015-Jul-20 13:33N 35°49' E 014°32'0 0.0
2015-Jul-20 12:33N 35°49' E 014°32'0 0.0
2015-Jul-20 11:33N 35°49' E 014°32'0 0.0
2015-Jul-20 10:33N 35°49' E 014°32'0 0.0
2015-Jul-20 09:33N 35°49' E 014°32'0 0.0
2015-Jul-20 08:33N 35°49' E 014°32'0 0.0
2015-Jul-20 07:33N 35°49' E 014°32'0 0.0
2015-Jul-20 06:32N 35°49' E 014°32'0 0.0
2015-Jul-20 05:33N 35°49' E 014°32'0 0.0
2015-Jul-20 04:33N 35°49' E 014°32'0 0.0
2015-Jul-20 03:33N 35°49' E 014°32'0 0.1
2015-Jul-20 01:31N 35°49' E 014°32'5 5.1
2015-Jul-20 00:32N 35°48' E 014°38'5 2.3
2015-Jul-19 22:25N 35°47' E 014°44'0 0.4
2015-Jul-19 21:11N 35°47' E 014°44'1911.2
2015-Jul-19 19:29N 35°47' E 014°20'2115.5
2015-Jul-19 18:10N 35°58' E 013°59'915.5
2015-Jul-19 17:33N 36°03' E 013°49'1515.4
2015-Jul-19 16:33N 36°11' E 013°33'1515.5
2015-Jul-19 15:33N 36°19' E 013°17'1515.2
2015-Jul-19 14:33N 36°28' E 013°01'1515.1
2015-Jul-19 13:33N 36°36' E 012°45'1515.3
2015-Jul-19 12:33N 36°44' E 012°29'1615.5
2015-Jul-19 11:34N 36°52' E 012°12'1615.5
2015-Jul-19 10:33N 37°00' E 011°56'1615.6
2015-Jul-19 09:33N 37°08' E 011°39'1515.3
2015-Jul-19 08:33N 37°16' E 011°22'1515.0
2015-Jul-19 07:32N 37°24' E 011°06'1515.3
2015-Jul-19 06:33N 37°28' E 010°47'1515.6
2015-Jul-19 05:33N 37°31' E 010°29'1615.8
2015-Jul-19 04:32N 37°34' E 010°08'6215.6
2015-Jul-19 00:33N 37°20' E 008°52'1915.8
2015-Jul-18 23:20N 37°16' E 008°28'6316.2
2015-Jul-18 19:27N 37°17' E 007°09'6215.2
2015-Jul-18 15:23N 37°19' E 005°51'9215.6
2015-Jul-18 09:28N 37°19' E 003°55'2015.6
2015-Jul-18 08:10N 37°14' E 003°31'915.3
2015-Jul-18 07:33N 37°12' E 003°19'1515.3
2015-Jul-18 06:33N 37°09' E 003°00'1515.1
2015-Jul-18 05:33N 37°05' E 002°42'1615.7
2015-Jul-18 04:33N 37°01' E 002°23'1615.6
2015-Jul-18 03:33N 36°57' E 002°04'1616.2
2015-Jul-18 02:33N 36°54' E 001°44'1615.6
2015-Jul-18 01:33N 36°50' E 001°25'1815.6
2015-Jul-18 00:25N 36°47' E 001°04'1415.7
2015-Jul-17 23:33N 36°43' E 000°47'1616.0
2015-Jul-17 22:33N 36°39' E 000°28'1615.8
2015-Jul-17 21:33N 36°36' E 000°09'1615.7
2015-Jul-17 20:33N 36°32' W 000°10'1615.8
2015-Jul-17 19:33N 36°28' W 000°29'1615.6
2015-Jul-17 18:33N 36°24' W 000°48'1615.9
2015-Jul-17 17:33N 36°20' W 001°07'1615.8
2015-Jul-17 16:33N 36°17' W 001°26'1615.7
2015-Jul-17 15:33N 36°13' W 001°45'1616.2
2015-Jul-17 14:33N 36°10' W 002°05'1615.8
2015-Jul-17 13:33N 36°09' W 002°24'1615.9
2015-Jul-17 12:32N 36°07' W 002°45'2115.4
2015-Jul-17 11:08N 36°06' W 003°11'208 7.3
2015-Jul-16 06:33N 36°08' W 007°29'1616.2
2015-Jul-16 05:33N 36°12' W 007°48'1616.4
2015-Jul-16 04:33N 36°17' W 008°07'1616.4
2015-Jul-16 03:33N 36°22' W 008°27'1616.3
2015-Jul-16 02:33N 36°26' W 008°46'1716.6
2015-Jul-16 01:33N 36°31' W 009°06'1615.8
2015-Jul-16 00:33N 36°38' W 009°23'1615.9
2015-Jul-15 23:34N 36°51' W 009°35'1817.6
2015-Jul-15 22:33N 37°09' W 009°39'1817.6
2015-Jul-15 21:33N 37°26' W 009°43'1717.4
2015-Jul-15 20:33N 37°43' W 009°49'1717.5
2015-Jul-15 19:33N 37°60' W 009°54'1817.7
2015-Jul-15 18:33N 38°17' W 009°59'1817.8
2015-Jul-15 17:33N 38°34' W 010°04'1717.3
2015-Jul-15 16:33N 38°52' W 010°06'2017.9
2015-Jul-15 15:28N 39°11' W 010°06'1617.6
2015-Jul-15 14:33N 39°27' W 010°06'3717.7
2015-Jul-15 12:27N 40°04' W 010°06'1617.5
2015-Jul-15 11:32N 40°20' W 010°06'10717.8
2015-Jul-15 05:30N 42°08' W 010°06'1717.7
2015-Jul-15 04:33N 42°24' W 010°06'  

Dump ship's entire track history